Terminal Aerodrome Forecast
Issued by NWS Charleston, WV

Current Version | Previous Version | Graphics & Text | Print | Product List | Glossary On
Versions: 1 2 3 4 5 6 7 8 9 10 11 12 13 14 15 16 17 18 19 20 21 22 23 24
000
FTUS41 KRLX 211400 AAB
TAFHTS
TAF AMD
KHTS 211400Z 2114/2212 30007KT P6SM OVC015
     FM211500 30006KT P6SM BKN025
     FM211700 30008KT P6SM OVC035
     FM220500 32006KT P6SM OVC025
     FM221000 31005KT P6SM OVC020=

USA.gov is the U.S. government's official web portal to all federal, state and local government web resources and services.